Terminal Aerodrome Forecast
Issued by NWS

Home | Current Version | Previous Version | Text Only | Print | Product List | Glossary On
Versions: 1 2 3 4 5 6 7 8 9 10 11 12 13 14 15 16 17 18 19 20 21 22 23 24 25 26 27 28 29 30
000
FTUS43 KJKL 250520
TAFSYM
TAF
KSYM 250520Z 2506/2606 VRB03KT P6SM VCSH SCT060 OVC080
     FM251100 VRB04KT P6SM VCSH OVC080
     FM251500 22006KT P6SM OVC100
     FM251600 22007KT P6SM VCSH OVC090=

USA.gov is the U.S. government's official web portal to all federal, state and local government web resources and services.